Last 365 Observations

Top of 15

Daily Data | America/Los_Angeles
as of 12/1/22 10:53 PM PST
Date Daily Max Temp (°F) Time of Max Temp Daily Min Temp (°F) Time of Min Temp Wind Spd (mph) Daily Max Wind (mph) Time of Max Wind Max Wind Dir (°) Dew Pt (°F) Max RH (%) Min RH (%) Max Wet Bulb Temp (°F) Min Wet Bulb Temp (°F) WetB Hrs <28F (hrs) Hrs <= 32F (hrs) Min Wind Chill (°F) Wind Chill Time
11/30/22 32.9 0141 22.7 2038 0.0 0.0 0001 N | 0 4.3 75 13 24.8 20.4 24.0 21.1 22.7 2038
11/29/22 37.6 1457 22.1 0637 0.0 0.0 0001 N | 0 -8.1 32 7 27.6 16.6 24.0 12.2 22.1 0638
11/28/22 32.0 1426 20.9 2026 0.0 0.0 0000 N | 0 7.7 82 13 29.2 17.2 9.6 9.6 20.9 2026
11/27/22 43.5 1057 31.8 0009 0.0 0.0 0001 N | 0 -11.0 31 5 30.7 22.5 15.9 0.1 31.8 0009
11/26/22 43.8 1235 25.3 2028 0.0 0.0 0001 N | 0 5.4 77 7 34.0 20.5 11.8 7.9 25.3 2028
11/25/22 50.9 1034 32.7 0038 0.0 0.0 0001 N | 0 6.4 35 16 36.6 25.0 2.7 0.0 32.7 0038
11/24/22 45.4 1314 28.8 0613 0.0 0.0 0001 N | 0 -3.7 30 9 33.3 20.8 17.6 5.9 28.8 0613
11/23/22 44.0 1333 28.6 0604 0.0 0.0 0001 N | 0 3.8 64 10 31.8 21.8 13.4 6.4 28.6 0604
11/22/22 46.1 1338 29.6 0219 0.0 0.0 0001 N | 0 -0.1 49 9 34.5 21.5 14.5 6.8 29.6 0219
11/21/22 44.3 1053 27.4 0238 0.0 0.0 0001 N | 0 -5.8 64 6 31.1 21.3 18.2 9.5 27.4 0238
11/20/22 40.7 0953 25.9 0031 0.0 0.0 0001 N | 0 -3.4 55 7 29.0 20.2 22.1 13.9 25.9 0031
11/19/22 33.9 1354 13.2 0018 0.0 0.0 0001 N | 0 0.1 83 13 25.6 11.0 24.0 20.4 13.2 0018
11/18/22 33.7 0002 14.1 2341 0.0 0.0 0001 N | 0 9.0 93 21 25.2 12.1 24.0 23.9 14.1 2341
11/17/22 48.4 1156 26.6 0107 0.0 0.0 0001 N | 0 0.5 35 11 34.9 20.3 13.0 7.3 26.6 0107
11/16/22 38.2 1341 18.3 0148 0.0 0.0 0001 N | 0 -6.9 56 8 28.2 14.6 24.0 17.8 18.3 0148
11/15/22 29.5 1250 13.8 0741 0.0 0.0 0001 N | 0 9.9 97 39 24.7 13.6 24.0 24.0 13.8 0741
11/14/22 39.2 0957 19.8 2355 0.0 0.0 0000 N | 0 6.2 65 18 29.0 17.1 13.2 10.2 19.8 2355
11/13/22 26.2 1447 13.2 0534 0.0 0.0 0001 N | 0 4.8 94 21 20.2 12.8 24.0 24.0 13.2 0534
11/12/22 32.3 0001 17.9 2229 0.0 0.0 0001 N | 0 4.9 88 19 25.8 16.6 24.0 23.9 17.9 2229
11/11/22 40.7 1306 24.0 0102 0.0 0.0 0001 N | 0 -2.6 47 7 30.3 17.4 22.6 13.4 24.0 0102
11/10/22 31.7 1240 13.0 0006 0.0 0.0 0001 N | 0 -1.2 80 10 25.1 11.5 24.0 24.0 13.0 0006
11/9/22 21.1 1631 12.6 2202 0.0 0.0 0001 N | 0 10.4 94 49 18.4 11.7 24.0 24.0 12.6 2203
11/8/22 24.9 1049 14.8 2253 0.0 0.0 0001 N | 0 15.9 96 73 24.2 14.1 24.0 24.0 14.8 2253
11/7/22 31.2 0037 14.9 2044 0.0 0.0 0001 N | 0 22.4 98 84 30.9 14.1 21.6 24.0 14.9 2044
11/6/22 34.4 1001 29.3 2141 0.0 0.0 0001 N | 0 31.2 98 91 33.8 29.0 0.0 7.9 29.3 2141
11/5/22 46.2 0104 32.7 0037 0.0 0.0 0101 N | 0 18.4 94 14 35.9 29.7 0.0 0.0 32.7 0037
11/4/22 47.2 1511 37.3 1852 0.0 0.0 0100 N | 0 12.9 59 12 36.5 27.8 0.0 0.0 37.3 1852
Max 50.9 - 37.3 - 0.0 0.0 - - 31.2 98 91 36.6 29.7 24.0 24.0 37.3 -
Avg - - - - 0.0 - - - 4.9 - - - - - 13.4 - -
Min 21.1 - 12.6 - 0.0 0.0 - - -11.0 30 5 18.4 11.0 0.0 0.0 12.6 -
Total - - - - - - - - - - - - - - 362.1 - -